Time;durP1;ratioP1;P1;durP2;ratioP2;P2;SDS_P1;SDS_P2;PMS_P1;PMS_P2;Temp;Humidity;BMP_temperature;BMP_pressure;BME280_temperature;BME280_humidity;BME280_pressure;Samples;Min_cycle;Max_cycle;Signal;HPM_P1;HPM_P2
2022/07/01 00:00:49;;;;;;;9.63;4.18;;;;;;;22.59;65.90;94865.69;5022829;28;20188;-79
2022/07/01 00:03:14;;;;;;;10.68;5.38;;;;;;;22.55;65.04;94867.38;5022757;28;20188;-79
2022/07/01 00:05:40;;;;;;;8.40;4.82;;;;;;;22.57;64.93;94857.91;5004611;28;20575;-79
2022/07/01 00:08:05;;;;;;;11.38;4.93;;;;;;;22.50;65.24;94859.34;5025600;28;20226;-79
2022/07/01 00:10:31;;;;;;;11.18;5.63;;;;;;;22.38;66.09;94856.28;5020053;28;20237;-79
2022/07/01 00:12:56;;;;;;;12.60;5.53;;;;;;;22.43;66.43;94858.91;5026104;28;20173;-79
2022/07/01 00:15:22;;;;;;;9.93;4.85;;;;;;;22.43;66.49;94865.06;5022396;28;20176;-79
2022/07/01 00:17:48;;;;;;;9.23;4.78;;;;;;;22.22;66.86;94850.28;5022211;28;20634;-79
2022/07/01 00:20:14;;;;;;;5.85;3.63;;;;;;;22.14;66.86;94846.31;5021944;28;20680;-79
2022/07/01 00:22:40;;;;;;;6.53;4.63;;;;;;;22.33;67.36;94873.22;5026510;28;20678;-79
2022/07/01 00:25:06;;;;;;;5.22;3.97;;;;;;;22.26;67.08;94871.94;5027346;28;20255;-79
2022/07/01 00:27:32;;;;;;;9.60;3.80;;;;;;;22.29;67.54;94866.81;5030073;28;20637;-79
2022/07/01 00:29:57;;;;;;;10.27;4.38;;;;;;;22.27;67.73;94874.34;5027630;28;20182;-79
2022/07/01 00:32:22;;;;;;;6.65;4.07;;;;;;;22.26;67.56;94871.94;5024371;28;20182;-80
2022/07/01 00:34:48;;;;;;;12.93;5.40;;;;;;;22.25;68.04;94879.19;5018847;28;20259;-79
2022/07/01 00:37:13;;;;;;;10.18;4.55;;;;;;;22.17;67.98;94863.72;5022017;28;20172;-79
2022/07/01 00:39:39;;;;;;;17.52;8.18;;;;;;;22.21;68.23;94870.13;5023319;28;20659;-79
2022/07/01 00:42:04;;;;;;;14.55;8.35;;;;;;;22.22;68.09;94870.94;5032692;28;20219;-79
2022/07/01 00:44:31;;;;;;;10.02;5.82;;;;;;;22.16;68.57;94873.66;5032842;28;20187;-79
2022/07/01 00:46:59;;;;;;;41.38;22.13;;;;;;;22.10;69.25;94877.47;5032437;28;20172;-79
2022/07/01 00:49:25;;;;;;;20.10;13.05;;;;;;;22.06;69.31;94875.59;5032661;28;20626;-79
2022/07/01 00:51:52;;;;;;;21.10;9.15;;;;;;;21.89;69.41;94875.19;5032520;28;20179;-79
2022/07/01 00:54:19;;;;;;;15.93;8.13;;;;;;;21.71;70.26;94855.22;5032377;28;20208;-79
2022/07/01 00:56:45;;;;;;;22.73;10.02;;;;;;;21.65;70.90;94856.34;5032566;28;20594;-79
2022/07/01 00:59:10;;;;;;;16.85;8.40;;;;;;;21.78;70.68;94886.03;5032663;28;20198;-79
2022/07/01 01:01:36;;;;;;;24.23;10.50;;;;;;;21.77;71.00;94888.97;5032813;28;20242;-79
2022/07/01 01:04:02;;;;;;;14.48;8.80;;;;;;;21.73;70.88;94880.69;5032350;28;20661;-79
2022/07/01 01:06:27;;;;;;;15.13;7.38;;;;;;;21.72;70.37;94880.97;5032424;28;20565;-80
2022/07/01 01:08:53;;;;;;;19.17;11.70;;;;;;;21.56;70.38;94868.75;5028088;28;20180;-79
2022/07/01 01:11:19;;;;;;;14.27;8.57;;;;;;;21.56;70.98;94877.59;5032246;28;20183;-79
2022/07/01 01:13:45;;;;;;;12.23;6.15;;;;;;;21.46;71.34;94875.78;5032378;28;20192;-79
2022/07/01 01:16:20;;;;;;;8.65;6.22;;;;;;;21.36;71.66;94883.09;5014347;28;20230;-79
2022/07/01 01:18:46;;;;;;;18.52;11.73;;;;;;;21.28;72.54;94884.47;5032129;28;20272;-79
2022/07/01 01:21:12;;;;;;;22.33;10.55;;;;;;;21.29;72.67;94878.03;5032393;28;20704;-79
2022/07/01 01:23:37;;;;;;;12.85;7.43;;;;;;;21.22;72.01;94869.50;5032463;28;20553;-79
2022/07/01 01:26:03;;;;;;;12.38;6.82;;;;;;;21.32;72.45;94880.16;5032224;28;20189;-79
2022/07/01 01:28:29;;;;;;;7.10;5.38;;;;;;;21.26;72.35;94872.44;5032042;28;20179;-79
2022/07/01 01:30:55;;;;;;;14.43;6.53;;;;;;;21.25;72.53;94870.84;5031587;28;20238;-79
2022/07/01 01:33:20;;;;;;;9.73;5.75;;;;;;;21.26;73.12;94872.44;5032009;28;20183;-79
2022/07/01 01:35:46;;;;;;;6.78;4.68;;;;;;;21.23;72.86;94878.34;5032026;28;20223;-79
2022/07/01 01:38:12;;;;;;;10.13;6.28;;;;;;;21.20;73.51;94892.28;5032021;28;20732;-79
2022/07/01 01:40:38;;;;;;;20.00;10.68;;;;;;;21.13;74.01;94891.75;5031568;28;20257;-79
2022/07/01 01:43:03;;;;;;;37.47;22.27;;;;;;;21.15;73.99;94890.41;5031945;28;20195;-79
2022/07/01 01:45:29;;;;;;;9.07;5.68;;;;;;;21.15;73.41;94889.59;5031541;28;20218;-79
2022/07/01 01:47:55;;;;;;;7.57;4.95;;;;;;;20.89;74.10;94864.84;5031956;28;20214;-79
2022/07/01 01:50:21;;;;;;;9.75;5.68;;;;;;;20.98;74.27;94890.75;5032126;28;20683;-79
2022/07/01 01:52:46;;;;;;;15.10;7.45;;;;;;;20.88;74.45;94876.59;5031972;28;20168;-79
2022/07/01 01:55:13;;;;;;;8.48;5.07;;;;;;;20.98;74.32;94893.44;5031369;28;20179;-79
2022/07/01 01:57:38;;;;;;;12.63;6.50;;;;;;;20.92;74.41;94883.84;5031740;28;20202;-79
2022/07/01 02:00:07;;;;;;;8.63;6.18;;;;;;;20.97;74.69;94904.41;5031734;28;20668;-79
2022/07/01 02:02:36;;;;;;;13.02;6.38;;;;;;;20.90;74.80;94896.69;5031387;28;20203;-79
2022/07/01 02:05:03;;;;;;;9.93;5.40;;;;;;;20.80;74.87;94874.50;5031763;28;20195;-79
2022/07/01 02:07:28;;;;;;;7.43;5.10;;;;;;;20.82;74.63;94880.38;5031630;28;20182;-79
2022/07/01 02:09:53;;;;;;;6.75;5.43;;;;;;;20.87;74.99;94891.88;5031678;28;20168;-79
2022/07/01 02:12:19;;;;;;;7.18;5.03;;;;;;;20.88;75.23;94903.38;5031488;28;20176;-79
2022/07/01 02:14:44;;;;;;;8.45;5.30;;;;;;;20.68;75.22;94880.97;5031492;28;20180;-79
2022/07/01 02:17:10;;;;;;;9.75;5.13;;;;;;;20.75;75.28;94902.09;5031509;28;20188;-79
2022/07/01 02:19:35;;;;;;;11.05;5.82;;;;;;;20.74;75.37;94905.84;5031778;28;20203;-80
2022/07/01 02:22:00;;;;;;;9.00;5.28;;;;;;;20.34;75.82;94847.91;5031758;28;20628;-80
2022/07/01 02:24:26;;;;;;;9.73;5.13;;;;;;;20.48;76.06;94874.88;5031774;28;20229;-80
2022/07/01 02:26:52;;;;;;;13.95;8.68;;;;;;;20.63;76.67;94899.72;5031639;28;20180;-80
2022/07/01 02:29:17;;;;;;;11.57;7.25;;;;;;;20.63;76.33;94910.41;5031816;28;20168;-80
2022/07/01 02:31:43;;;;;;;11.07;6.18;;;;;;;20.57;76.41;94914.19;5031782;28;20211;-79
2022/07/01 02:34:08;;;;;;;20.42;11.98;;;;;;;20.55;76.56;94915.53;5031843;28;21013;-79
2022/07/01 02:36:33;;;;;;;6.18;5.07;;;;;;;20.46;76.37;94928.66;5031547;28;20641;-79
2022/07/01 02:38:59;;;;;;;11.38;7.70;;;;;;;20.41;76.37;94917.94;5031578;28;20591;-80
2022/07/01 02:41:24;;;;;;;10.82;7.07;;;;;;;20.41;77.15;94917.16;5032975;28;20769;-79
2022/07/01 02:43:50;;;;;;;8.60;5.00;;;;;;;20.41;76.65;94920.63;5035472;28;20175;-79
2022/07/01 02:46:15;;;;;;;11.15;5.68;;;;;;;20.43;76.89;94923.81;5035075;28;20264;-79
2022/07/01 02:48:41;;;;;;;8.23;4.80;;;;;;;20.48;76.70;94936.41;5035553;28;20171;-79
2022/07/01 02:51:06;;;;;;;28.42;9.75;;;;;;;20.33;76.53;94913.91;5035295;28;20310;-79
2022/07/01 02:53:31;;;;;;;20.77;10.13;;;;;;;20.40;77.26;94926.25;5035430;28;20190;-80
2022/07/01 02:55:57;;;;;;;20.80;13.25;;;;;;;20.35;77.22;94921.69;5034907;28;20559;-80
2022/07/01 02:58:23;;;;;;;18.27;9.30;;;;;;;20.36;76.95;94930.53;5034858;28;20553;-79
2022/07/01 03:00:50;;;;;;;20.33;9.45;;;;;;;20.37;76.99;94930.25;5035248;28;20259;-79
2022/07/01 03:03:15;;;;;;;10.70;5.22;;;;;;;20.37;76.70;94940.97;5034410;28;20175;-79
2022/07/01 03:05:41;;;;;;;12.75;8.90;;;;;;;20.26;76.40;94931.31;5034629;28;20656;-80
2022/07/01 03:08:06;;;;;;;10.48;7.15;;;;;;;20.39;76.75;94949.53;5034412;28;20156;-80
2022/07/01 03:10:32;;;;;;;14.88;6.65;;;;;;;20.32;76.44;94946.31;5034791;28;20214;-80
2022/07/01 03:12:59;;;;;;;12.00;5.20;;;;;;;20.38;76.68;94958.63;5034632;28;20206;-80
2022/07/01 03:15:24;;;;;;;6.13;4.68;;;;;;;20.37;76.31;94950.84;5034483;28;20164;-80
2022/07/01 03:17:50;;;;;;;9.82;5.72;;;;;;;20.42;76.19;94953.50;5034678;28;20170;-80
2022/07/01 03:20:17;;;;;;;11.02;6.43;;;;;;;20.39;76.53;94960.22;5034476;28;20657;-80
2022/07/01 03:22:44;;;;;;;9.07;4.80;;;;;;;20.41;76.41;94958.06;5034213;28;20176;-80
2022/07/01 03:25:10;;;;;;;9.00;5.65;;;;;;;20.42;76.93;94962.34;5034578;28;20175;-80
2022/07/01 03:27:36;;;;;;;10.55;5.80;;;;;;;20.17;76.59;94915.00;5034132;28;20176;-80
2022/07/01 03:30:05;;;;;;;13.55;6.90;;;;;;;20.41;76.19;94941.25;5034444;28;20168;-79
2022/07/01 03:32:30;;;;;;;10.95;5.10;;;;;;;20.57;76.49;94961.53;5034220;28;20175;-79
2022/07/01 03:34:55;;;;;;;16.73;9.27;;;;;;;20.63;76.71;94957.78;5034143;28;20199;-79
2022/07/01 03:37:22;;;;;;;6.90;4.60;;;;;;;20.66;76.95;94958.03;5016506;28;20557;-79
2022/07/01 03:39:48;;;;;;;14.27;8.23;;;;;;;20.73;76.96;94959.63;5034031;28;20572;-79
2022/07/01 03:42:14;;;;;;;19.27;5.55;;;;;;;20.83;75.79;94962.28;5034385;28;20227;-79
2022/07/01 03:44:40;;;;;;;15.73;5.13;;;;;;;20.97;75.24;94957.94;5034293;28;20175;-79
2022/07/01 03:47:06;;;;;;;12.73;5.68;;;;;;;20.99;74.43;94929.03;5033840;28;20180;-79
2022/07/01 03:49:32;;;;;;;12.48;5.22;;;;;;;21.33;73.38;94964.00;5027213;28;20256;-78
2022/07/01 03:51:58;;;;;;;11.38;4.93;;;;;;;21.41;74.28;94964.22;5032993;28;20272;-78
2022/07/01 03:54:29;;;;;;;10.68;4.43;;;;;;;21.48;73.94;94955.06;5033252;28;20629;-78
2022/07/01 03:57:03;;;;;;;7.88;4.65;;;;;;;21.68;73.83;94968.38;5032632;28;20180;-78
2022/07/01 03:59:33;;;;;;;10.00;6.57;;;;;;;21.82;72.98;94958.63;5031804;28;20203;-78
2022/07/01 04:01:59;;;;;;;14.38;6.57;;;;;;;21.99;71.72;94961.75;5033140;28;20172;-78
2022/07/01 04:04:26;;;;;;;15.15;5.60;;;;;;;22.14;72.56;94958.94;5033478;28;20191;-78
2022/07/01 04:06:58;;;;;;;18.70;5.50;;;;;;;22.28;70.62;94961.78;5033054;28;20190;-78
2022/07/01 04:09:24;;;;;;;11.35;4.90;;;;;;;22.28;69.79;94961.00;5033567;28;20172;-79
2022/07/01 04:11:52;;;;;;;15.90;5.18;;;;;;;22.51;70.06;94968.28;5031473;28;20183;-78
2022/07/01 04:14:17;;;;;;;9.88;4.70;;;;;;;22.69;70.69;94978.31;5032965;28;20183;-78
2022/07/01 04:16:47;;;;;;;10.90;5.82;;;;;;;22.90;70.12;94982.44;5033151;28;20175;-78
2022/07/01 04:19:14;;;;;;;8.90;4.90;;;;;;;23.03;70.37;94978.25;5032986;28;20192;-78
2022/07/01 04:24:24;;;;;;;9.73;5.13;;;;;;;23.31;68.14;94966.66;5033450;28;20284;-79
2022/07/01 04:26:50;;;;;;;16.63;8.35;;;;;;;23.58;68.09;94984.09;5033645;28;20622;-79
2022/07/01 04:29:16;;;;;;;13.30;4.97;;;;;;;23.65;66.34;94965.72;5033563;28;20168;-79
2022/07/01 04:31:41;;;;;;;14.80;6.45;;;;;;;23.96;64.78;94980.31;5033588;28;20170;-79
2022/07/01 04:34:08;;;;;;;8.40;5.30;;;;;;;24.08;63.97;94988.75;5033321;28;20179;-79
2022/07/01 04:36:34;;;;;;;9.13;4.90;;;;;;;24.27;63.62;94994.16;5033365;28;20172;-80
2022/07/01 04:39:01;;;;;;;23.85;11.40;;;;;;;24.35;62.61;94981.91;5033339;28;20192;-80
2022/07/01 04:44:10;;;;;;;13.25;6.13;;;;;;;24.66;62.74;94988.38;5033563;28;20643;-80
2022/07/01 04:46:36;;;;;;;6.53;4.50;;;;;;;24.79;62.55;94993.00;5033398;28;20171;-80
2022/07/01 04:49:02;;;;;;;5.72;4.10;;;;;;;24.92;61.80;94990.63;5029693;28;20616;-80
2022/07/01 04:51:28;;;;;;;13.95;4.55;;;;;;;24.91;60.66;94948.63;5025683;28;20183;-80
2022/07/01 04:53:54;;;;;;;13.55;4.78;;;;;;;25.41;60.76;94993.47;5016529;28;20564;-80
2022/07/01 04:56:19;;;;;;;13.38;6.97;;;;;;;25.59;60.25;94982.88;5020534;28;20172;-80
2022/07/01 04:58:45;;;;;;;7.82;4.25;;;;;;;25.80;59.03;94984.84;5021466;28;20543;-79
2022/07/01 05:01:10;;;;;;;8.02;4.88;;;;;;;26.04;58.80;94983.78;5021390;28;20183;-80
2022/07/01 05:03:36;;;;;;;8.70;3.97;;;;;;;26.36;57.37;94983.59;5021103;28;20172;-80
2022/07/01 05:06:01;;;;;;;9.38;5.90;;;;;;;26.64;56.28;94971.53;5020285;28;20679;-80
2022/07/01 05:08:28;;;;;;;9.00;4.10;;;;;;;26.91;55.92;94967.09;5021256;28;20238;-79
2022/07/01 05:10:53;;;;;;;8.57;5.60;;;;;;;27.39;53.12;94975.25;5021358;28;20172;-80
2022/07/01 05:13:19;;;;;;;9.07;4.90;;;;;;;27.57;51.03;94968.03;5029532;28;20252;-79
2022/07/01 05:15:44;;;;;;;6.95;3.60;;;;;;;27.95;51.69;94989.88;5021015;28;20263;-80
2022/07/01 05:23:37;;;;;;;6.53;4.18;;;;;;;29.07;49.51;94993.31;5013061;28;20244;-79
2022/07/01 05:26:04;;;;;;;6.65;3.92;;;;;;;29.45;48.43;94998.00;5019483;28;20176;-80
2022/07/01 05:28:29;;;;;;;11.63;7.90;;;;;;;29.81;47.85;94987.44;5030797;28;20203;-80
2022/07/01 05:30:55;;;;;;;13.65;6.18;;;;;;;30.20;46.45;94991.63;5021193;28;20207;-80
2022/07/01 05:33:21;;;;;;;12.93;6.63;;;;;;;30.30;44.77;94987.72;5013131;28;20165;-81
2022/07/01 05:35:47;;;;;;;16.92;6.30;;;;;;;30.25;44.51;94986.03;5013173;28;20605;-80
2022/07/01 05:38:13;;;;;;;8.30;4.00;;;;;;;30.34;44.29;94992.19;5012702;28;20180;-80
2022/07/01 05:40:38;;;;;;;7.90;4.32;;;;;;;30.69;44.42;94984.53;5018497;28;20309;-80
2022/07/01 05:43:04;;;;;;;9.70;4.00;;;;;;;31.04;42.83;94997.78;5011530;28;20180;-80
2022/07/01 05:45:29;;;;;;;8.05;4.47;;;;;;;31.21;44.26;94972.31;5030181;28;20175;-80
2022/07/01 05:47:56;;;;;;;7.85;4.78;;;;;;;31.56;44.80;94987.09;5029849;28;20283;-80
2022/07/01 05:50:22;;;;;;;8.73;4.65;;;;;;;31.85;42.84;94973.25;5017130;28;20187;-79
2022/07/01 05:52:47;;;;;;;8.45;4.72;;;;;;;32.18;42.05;94989.44;5019155;28;20184;-81
2022/07/01 05:55:13;;;;;;;12.35;4.35;;;;;;;32.21;41.75;94966.16;5008542;28;20159;-82
2022/07/01 05:57:38;;;;;;;13.43;8.65;;;;;;;32.41;43.23;95000.63;5031949;28;20183;-80
2022/07/01 06:00:04;;;;;;;9.50;4.07;;;;;;;32.28;42.23;95001.78;5031785;28;20210;-82
2022/07/01 06:02:30;;;;;;;15.32;5.03;;;;;;;31.95;40.42;94993.78;5031081;28;20632;-81
2022/07/01 06:04:55;;;;;;;12.52;5.72;;;;;;;31.30;41.90;94997.50;5030398;28;20186;-81
2022/07/01 06:07:20;;;;;;;7.47;5.05;;;;;;;30.86;44.59;94956.38;5031641;28;20179;-81
2022/07/01 06:09:46;;;;;;;6.90;4.47;;;;;;;30.98;43.70;94988.22;5031708;28;20254;-81
2022/07/01 06:12:11;;;;;;;8.40;4.03;;;;;;;31.08;45.50;94991.34;5031651;28;20938;-81
2022/07/01 06:14:37;;;;;;;8.10;3.72;;;;;;;31.28;44.73;94995.13;5027509;28;20270;-81
2022/07/01 06:17:04;;;;;;;10.20;4.70;;;;;;;31.53;44.94;94995.13;5034695;28;20176;-81
2022/07/01 06:19:29;;;;;;;6.75;4.80;;;;;;;31.65;42.88;94992.47;5035721;28;20223;-81
2022/07/01 06:21:55;;;;;;;6.78;4.88;;;;;;;31.56;43.03;94997.19;5035956;28;20621;-81
2022/07/01 06:24:21;;;;;;;6.85;4.22;;;;;;;31.28;45.51;95000.56;5036152;28;20302;-81
2022/07/01 06:26:47;;;;;;;9.02;4.00;;;;;;;31.20;43.68;94989.78;5035546;28;20262;-81
2022/07/01 06:29:13;;;;;;;10.65;4.30;;;;;;;30.82;43.22;94950.00;5035567;28;20250;-81
2022/07/01 06:31:38;;;;;;;10.57;4.93;;;;;;;31.28;44.62;95005.22;5035296;28;20564;-80
2022/07/01 06:34:04;;;;;;;9.52;4.38;;;;;;;31.36;44.16;94999.66;5035082;28;20172;-81
2022/07/01 06:36:29;;;;;;;8.77;5.20;;;;;;;31.55;45.52;94987.44;5035315;28;20179;-81
2022/07/01 06:38:54;;;;;;;10.02;7.35;;;;;;;31.66;45.25;94972.22;5035213;28;20211;-81
2022/07/01 06:41:26;;;;;;;11.07;4.70;;;;;;;31.89;44.57;94997.06;5033501;28;20219;-82
2022/07/01 06:43:51;;;;;;;8.82;4.40;;;;;;;32.04;43.49;94996.38;5023514;28;20183;-81
2022/07/01 06:46:17;;;;;;;9.32;4.53;;;;;;;31.99;43.21;94997.41;5031913;28;20167;-80
2022/07/01 06:48:42;;;;;;;11.48;4.63;;;;;;;31.90;45.33;94996.75;5023668;28;20639;-80
2022/07/01 06:51:08;;;;;;;11.73;5.57;;;;;;;31.99;43.82;94999.34;5023424;28;20188;-80
2022/07/01 06:53:33;;;;;;;9.75;4.30;;;;;;;31.95;42.35;95003.88;5025319;28;20180;-80
2022/07/01 06:55:59;;;;;;;8.77;4.50;;;;;;;31.80;43.51;95002.66;5026881;28;20254;-80
2022/07/01 06:58:24;;;;;;;13.52;4.45;;;;;;;31.71;42.94;94993.81;5035037;28;20237;-80
2022/07/01 07:00:50;;;;;;;9.90;4.97;;;;;;;31.83;43.35;94989.13;5035397;28;20606;-79
2022/07/01 07:03:15;;;;;;;9.45;5.10;;;;;;;31.70;42.89;94993.00;5014106;28;20173;-81
2022/07/01 07:05:40;;;;;;;10.18;4.05;;;;;;;31.80;43.35;95000.72;4995693;28;20260;-80
2022/07/01 07:08:06;;;;;;;14.00;4.20;;;;;;;32.18;44.36;94994.88;4995069;28;20178;-80
2022/07/01 07:10:31;;;;;;;8.32;5.20;;;;;;;32.47;41.86;94996.50;4995081;28;20293;-80
2022/07/01 07:12:57;;;;;;;7.68;4.50;;;;;;;32.51;42.54;95007.53;4994859;28;20164;-80
2022/07/01 07:15:22;;;;;;;9.80;4.70;;;;;;;31.94;42.21;94940.41;5007529;28;20183;-80
2022/07/01 07:17:48;;;;;;;15.00;5.13;;;;;;;32.24;42.35;95003.63;5010010;28;20200;-80
2022/07/01 07:20:13;;;;;;;10.50;4.25;;;;;;;32.39;43.04;95005.63;5006415;28;20251;-80
2022/07/01 07:22:38;;;;;;;8.35;4.32;;;;;;;32.46;40.97;95003.09;5021533;28;20254;-80
2022/07/01 07:25:04;;;;;;;9.25;5.57;;;;;;;32.52;40.55;95000.94;5014594;28;20164;-79
2022/07/01 07:27:30;;;;;;;10.77;4.55;;;;;;;32.54;41.85;95002.16;5021952;28;20172;-79
2022/07/01 07:29:55;;;;;;;12.38;4.50;;;;;;;32.69;42.42;95005.31;5014522;28;20188;-80
2022/07/01 07:32:21;;;;;;;12.27;5.35;;;;;;;32.64;39.87;95000.88;5014557;28;20164;-79
2022/07/01 07:34:46;;;;;;;8.63;4.40;;;;;;;32.33;42.37;94995.31;5033193;28;20229;-82
2022/07/01 07:37:11;;;;;;;11.55;4.68;;;;;;;32.71;40.82;95003.03;5021427;28;20190;-82
2022/07/01 07:39:37;;;;;;;11.95;4.35;;;;;;;32.86;41.10;95002.31;5014252;28;20207;-82
2022/07/01 07:42:04;;;;;;;9.20;4.15;;;;;;;32.98;40.54;95013.94;5032129;28;20223;-83
2022/07/01 07:44:29;;;;;;;8.40;4.25;;;;;;;33.16;40.06;94999.94;5034819;28;20164;-82
2022/07/01 07:46:56;;;;;;;8.90;4.40;;;;;;;32.97;38.25;94956.97;5034019;28;20185;-82
2022/07/01 07:49:23;;;;;;;8.00;4.80;;;;;;;33.25;38.71;95003.34;5033940;28;20668;-81
2022/07/01 07:51:49;;;;;;;11.93;4.28;;;;;;;33.01;40.13;94971.50;5034243;28;20270;-81
2022/07/01 07:54:15;;;;;;;5.88;3.90;;;;;;;33.35;40.93;94997.38;5033967;28;20707;-80
2022/07/01 07:56:40;;;;;;;15.35;4.13;;;;;;;33.38;39.15;94969.38;5034027;28;20656;-85
2022/07/01 07:59:06;;;;;;;4.93;3.88;;;;;;;33.37;40.87;94972.44;5033743;28;20753;-85
2022/07/01 08:01:31;;;;;;;6.72;4.05;;;;;;;33.60;37.95;94997.97;5033734;28;20655;-83
2022/07/01 08:03:56;;;;;;;9.55;4.20;;;;;;;33.49;38.36;94994.19;5033898;28;20191;-84
2022/07/01 08:06:25;;;;;;;14.07;4.22;;;;;;;33.56;40.84;94991.63;5033644;28;20271;-83
2022/07/01 08:08:50;;;;;;;6.57;3.70;;;;;;;33.83;39.54;94985.28;5015998;28;20184;-83
2022/07/01 08:11:16;;;;;;;6.78;3.88;;;;;;;34.15;40.97;94982.47;5031298;28;20179;-82
2022/07/01 08:13:43;;;;;;;15.20;4.53;;;;;;;34.58;39.26;94984.19;5033428;28;20222;-80
2022/07/01 08:16:09;;;;;;;9.43;4.28;;;;;;;34.57;39.06;94980.66;5033128;28;20222;-84
2022/07/01 08:18:35;;;;;;;7.72;4.32;;;;;;;33.61;38.27;94981.22;5005134;28;20267;-84
2022/07/01 08:21:01;;;;;;;10.73;5.63;;;;;;;33.36;39.17;94954.47;5013911;28;20159;-83
2022/07/01 08:23:26;;;;;;;8.20;4.32;;;;;;;33.60;40.40;94970.66;5013511;28;20175;-84
2022/07/01 08:25:51;;;;;;;11.02;4.30;;;;;;;33.76;40.40;94935.94;5013763;28;20180;-83
2022/07/01 08:28:18;;;;;;;11.93;4.47;;;;;;;34.12;40.37;94947.66;5026892;28;20178;-83
2022/07/01 08:30:44;;;;;;;7.20;4.40;;;;;;;33.79;40.74;94957.09;5033292;28;20248;-83
2022/07/01 08:33:09;;;;;;;6.95;3.80;;;;;;;34.13;40.55;94965.63;5036101;28;20584;-86
2022/07/01 08:35:35;;;;;;;7.60;3.78;;;;;;;34.02;37.33;94968.13;5033113;28;20180;-84
2022/07/01 08:38:01;;;;;;;6.80;4.35;;;;;;;32.97;40.38;94951.50;5033267;28;20226;-81
2022/07/01 08:40:27;;;;;;;11.98;4.38;;;;;;;32.63;43.83;94957.59;5032318;28;20211;-82
2022/07/01 08:43:02;;;;;;;7.95;4.20;;;;;;;33.13;42.19;94965.16;5033024;28;20226;-83
2022/07/01 08:45:29;;;;;;;7.60;4.28;;;;;;;33.37;41.15;94953.34;5032529;28;20281;-83
2022/07/01 08:47:57;;;;;;;7.63;4.22;;;;;;;33.64;41.70;94933.31;5032760;28;20187;-83
2022/07/01 08:50:26;;;;;;;8.13;3.95;;;;;;;34.10;42.03;94969.88;5015206;28;20235;-82
2022/07/01 08:52:52;;;;;;;5.75;3.75;;;;;;;34.17;38.02;94947.34;5032731;28;20168;-85
2022/07/01 08:55:21;;;;;;;11.75;3.67;;;;;;;34.21;38.88;94956.44;5032611;28;20338;-86
2022/07/01 08:57:48;;;;;;;10.52;4.30;;;;;;;34.38;39.67;94951.34;5032582;28;20718;-83
2022/07/01 09:00:14;;;;;;;9.57;4.13;;;;;;;34.48;37.50;94944.53;5032510;28;20723;-81
2022/07/01 09:02:51;;;;;;;5.32;4.25;;;;;;;34.75;37.22;94970.09;5022667;28;20184;-82
2022/07/01 09:05:19;;;;;;;5.00;3.63;;;;;;;34.80;37.17;94945.94;5021069;28;20233;-82
2022/07/01 09:07:47;;;;;;;5.28;3.60;;;;;;;34.67;37.87;94925.34;5011469;28;20712;-84
2022/07/01 09:10:20;;;;;;;8.60;3.92;;;;;;;34.91;35.31;94957.09;5023427;28;20303;-83
2022/07/01 09:12:47;;;;;;;8.85;4.47;;;;;;;34.75;37.09;94962.69;5025658;28;20215;-83
2022/07/01 09:15:25;;;;;;;6.72;3.85;;;;;;;34.34;35.56;94960.63;5013260;28;20679;-81
2022/07/01 09:17:56;;;;;;;10.57;4.68;;;;;;;33.79;39.03;94957.09;5024430;28;20191;-81
2022/07/01 09:20:30;;;;;;;9.60;4.60;;;;;;;33.25;39.70;94965.13;5032129;28;20195;-81
2022/07/01 09:23:07;;;;;;;10.82;6.20;;;;;;;33.16;40.92;94965.25;5032400;28;20179;-81
2022/07/01 09:25:47;;;;;;;12.40;5.38;;;;;;;33.10;40.32;94961.22;5006405;28;20202;-81
2022/07/01 09:28:21;;;;;;;9.15;5.15;;;;;;;32.80;38.83;94947.19;5032112;28;20219;-81
2022/07/01 09:30:52;;;;;;;9.30;5.20;;;;;;;32.84;44.06;94958.19;5032184;28;20229;-81
2022/07/01 09:33:20;;;;;;;11.38;5.60;;;;;;;32.84;43.83;94950.81;5031732;28;20183;-82
2022/07/01 09:35:49;;;;;;;10.95;4.93;;;;;;;32.87;37.90;94917.34;5031865;28;20245;-82
2022/07/01 09:38:16;;;;;;;5.85;3.47;;;;;;;33.01;38.14;94957.06;5032305;28;20285;-79
2022/07/01 09:41:02;;;;;;;8.07;3.97;;;;;;;33.00;36.22;94958.22;5031979;28;20280;-79
2022/07/01 09:43:28;;;;;;;11.57;4.80;;;;;;;32.71;36.76;94943.03;5022556;28;20187;-80
2022/07/01 09:46:04;;;;;;;9.00;3.53;;;;;;;32.51;39.65;94929.25;5023139;28;20171;-79
2022/07/01 09:48:32;;;;;;;8.05;3.70;;;;;;;32.66;37.37;94946.00;5022762;28;20180;-79
2022/07/01 09:50:58;;;;;;;7.43;4.13;;;;;;;32.37;35.31;94917.94;5024823;28;20190;-79
2022/07/01 09:53:24;;;;;;;7.65;3.60;;;;;;;31.89;36.12;94920.81;5024424;28;20895;-80
2022/07/01 09:55:50;;;;;;;8.23;2.90;;;;;;;31.88;36.20;94935.56;5024548;28;20183;-79
2022/07/01 09:58:15;;;;;;;10.60;4.47;;;;;;;31.91;36.71;94927.50;5026993;28;20179;-80
2022/07/01 10:00:41;;;;;;;6.22;3.25;;;;;;;31.95;40.30;94925.66;5031721;28;20648;-78
2022/07/01 10:03:07;;;;;;;7.80;4.18;;;;;;;31.99;40.99;94915.69;5031869;28;20267;-80
2022/07/01 10:05:50;;;;;;;10.60;4.18;;;;;;;31.93;39.46;94917.03;5031746;28;20221;-79
2022/07/01 10:08:30;;;;;;;10.15;4.10;;;;;;;31.93;40.49;94924.41;5031794;28;20831;-78
2022/07/01 10:11:02;;;;;;;7.90;3.78;;;;;;;32.01;36.26;94918.81;5032082;28;20183;-78
2022/07/01 10:13:31;;;;;;;4.20;2.90;;;;;;;32.00;34.03;94919.97;5024174;28;20217;-78
2022/07/01 10:15:57;;;;;;;3.65;2.75;;;;;;;32.06;29.38;94910.44;5031748;28;20184;-78
2022/07/01 10:18:25;;;;;;;4.63;2.88;;;;;;;32.07;29.95;94924.84;5031381;28;20211;-77
2022/07/01 10:20:51;;;;;;;4.18;3.05;;;;;;;31.80;30.96;94902.69;5031495;28;20207;-77
2022/07/01 10:23:22;;;;;;;8.82;3.20;;;;;;;31.80;30.30;94920.94;5025641;28;20180;-77
2022/07/01 10:25:50;;;;;;;9.32;3.42;;;;;;;31.82;31.65;94910.50;5031458;28;20214;-78
2022/07/01 10:28:26;;;;;;;4.85;2.90;;;;;;;31.93;30.85;94913.53;5031266;28;20207;-81
2022/07/01 10:31:01;;;;;;;4.38;2.90;;;;;;;31.88;32.49;94913.78;5030045;28;20194;-79
2022/07/01 10:33:48;;;;;;;4.82;3.35;;;;;;;31.96;30.44;94904.66;5031248;28;20172;-79
2022/07/01 10:36:22;;;;;;;6.13;3.33;;;;;;;31.93;31.42;94902.63;5031221;28;20184;-77
2022/07/01 10:42:00;;;;;;;5.10;3.13;;;;;;;31.92;28.99;94896.38;5024750;28;20230;-82
2022/07/01 10:44:27;;;;;;;3.00;2.70;;;;;;;32.06;28.72;94899.53;5028950;28;20187;-81
2022/07/01 10:46:57;;;;;;;4.88;2.78;;;;;;;32.01;26.63;94888.88;5019804;28;20211;-82
2022/07/01 10:49:35;;;;;;;3.20;2.70;;;;;;;32.03;30.62;94883.06;5027707;28;20172;-82
2022/07/01 10:52:02;;;;;;;3.40;3.10;;;;;;;32.06;29.15;94876.94;5027806;28;20249;-82
2022/07/01 10:54:36;;;;;;;3.72;3.17;;;;;;;32.02;28.93;94881.47;5027633;28;20660;-81
2022/07/01 10:57:32;;;;;;;6.82;2.92;;;;;;;31.95;30.89;94881.28;5027504;28;20206;-82
2022/07/01 11:00:00;;;;;;;3.90;3.50;;;;;;;31.99;28.43;94883.00;5027455;28;20291;-81
2022/07/01 11:02:30;;;;;;;4.85;3.08;;;;;;;32.04;29.48;94882.72;5027467;28;20186;-81
2022/07/01 11:05:06;;;;;;;6.28;3.95;;;;;;;32.13;29.90;94882.59;5031315;28;20211;-82
2022/07/01 11:07:34;;;;;;;7.25;3.45;;;;;;;32.10;28.92;94886.00;5031158;28;20522;-82
2022/07/01 11:10:01;;;;;;;3.15;2.80;;;;;;;32.06;29.57;94864.13;5032915;28;20172;-82
2022/07/01 11:12:28;;;;;;;3.30;3.00;;;;;;;32.32;28.18;94880.03;5032542;28;20200;-81
2022/07/01 11:14:57;;;;;;;6.55;3.35;;;;;;;32.34;29.28;94879.69;5032962;28;20180;-81
2022/07/01 11:17:23;;;;;;;7.00;3.67;;;;;;;32.13;29.14;94855.34;5032879;28;20184;-81
2022/07/01 11:19:53;;;;;;;4.53;3.25;;;;;;;32.13;29.24;94861.59;5032616;28;20752;-82
2022/07/01 11:22:24;;;;;;;7.68;3.47;;;;;;;32.25;30.26;94868.94;5032776;28;20188;-82
2022/07/01 11:24:57;;;;;;;8.35;3.50;;;;;;;32.37;28.74;94865.34;5032481;28;20263;-81
2022/07/01 11:27:27;;;;;;;3.35;2.88;;;;;;;32.31;28.55;94862.09;5032623;28;20614;-82
2022/07/01 11:29:53;;;;;;;6.00;3.15;;;;;;;32.45;28.91;94869.84;5032412;28;20175;-82
2022/07/01 11:32:29;;;;;;;6.18;3.03;;;;;;;32.55;28.65;94872.88;5032450;28;20175;-81
2022/07/01 11:34:55;;;;;;;7.70;3.28;;;;;;;32.45;26.85;94862.47;5032619;28;20660;-82
2022/07/01 11:40:11;;;;;;;7.40;3.75;;;;;;;31.91;28.38;94821.28;5032439;28;20717;-81
2022/07/01 11:42:37;;;;;;;3.80;3.20;;;;;;;32.26;32.54;94853.38;5032450;28;20227;-81
2022/07/01 11:45:03;;;;;;;11.55;3.92;;;;;;;32.48;29.19;94860.97;5032383;28;20955;-81